Corinth, North Carolina
Current Conditions -  °F | °C
As of 10:35 PM on Wednesday 22 Oct 2014 (Local Time) from KFQD Reporting Station
Clear Clear  
Wind Chill: 48°   Ceiling: Unl
Heat Index: 49°   Visibility: 10mi
Dew Point: 37°   Wind: 5mph
Humidity: 62%   Direction: 340°NNW
Pressure: 30.12"   Gusts: NA
Location:  35.4977°N, 81.7958°W
Report Text: KFQD 230235Z AUTO 34004KT 10SM CLR 10/03 A3012 RMK AO2 T00970028
Loading
Personal Weather Stations






























Interactive Weather Map
Tropical Storm Tracking
New forecast layout! Learn more

10-Day Weather Forecast

Advertisements
Track Severe Weather on mobile